METAR Data
IDs: Format: Raw Decoded Include TAF

Data at: 1341 UTC 21 Apr 2021

METAR for:KPEA (Pella Muni, IA, US)
Text:KPEA 211335Z AUTO 35005KT 10SM CLR 04/M07 A3019 RMK AO2 T00351072
Temperature: 3.5°C ( 38°F)
Dewpoint: -7.2°C ( 19°F) [RH = 45%]
Pressure (altimeter):30.19 inches Hg (1022.4 mb)
Winds:from the N (350 degrees) at 6 MPH (5 knots; 2.6 m/s)
Visibility:10 or more sm (16+ km)
Ceiling:at least 12,000 feet AGL
Clouds:sky clear below 12,000 feet AGL
QC Flag:automated observation with no human augmentation